createdAt,value
2023-03-08T00:04:02.073Z,12.57
2023-03-08T00:10:05.350Z,13.93
2023-03-08T00:16:12.345Z,15.88
2023-03-08T00:22:14.883Z,14.98
2023-03-08T00:28:17.317Z,13.83
2023-03-08T00:34:19.695Z,12.48
2023-03-08T00:40:21.937Z,12.82
2023-03-08T00:46:25.895Z,13.20
2023-03-08T00:52:29.620Z,12.35
2023-03-08T00:58:32.127Z,13.30
2023-03-08T01:04:34.644Z,12.95
2023-03-08T01:10:37.125Z,15.65
2023-03-08T01:16:39.246Z,14.23
2023-03-08T01:22:41.872Z,14.23
2023-03-08T01:28:44.773Z,14.20
2023-03-08T01:34:47.299Z,13.85
2023-03-08T01:40:49.536Z,13.45
2023-03-08T01:46:51.737Z,15.40
2023-03-08T01:52:55.788Z,16.05
2023-03-08T01:58:58.648Z,14.48
2023-03-08T02:05:01.104Z,15.23
2023-03-08T02:11:04.885Z,15.27
2023-03-08T02:17:09.278Z,16.38
2023-03-08T02:23:15.461Z,16.33
2023-03-08T02:29:17.817Z,16.85
2023-03-08T02:35:20.015Z,17.45
2023-03-08T02:41:22.664Z,16.45
2023-03-08T02:47:25.020Z,17.95
2023-03-08T02:53:27.919Z,18.50
2023-03-08T02:59:31.253Z,17.95
2023-03-08T03:05:34.405Z,17.00
2023-03-08T03:11:41.889Z,18.55
2023-03-08T03:17:44.435Z,19.80
2023-03-08T03:23:47.161Z,19.10
2023-03-08T03:29:53.220Z,19.30
2023-03-08T03:35:56.052Z,17.80
2023-03-08T03:41:58.825Z,19.33
2023-03-08T03:48:01.318Z,19.00
2023-03-08T03:54:06.969Z,19.25
2023-03-08T04:00:11.315Z,18.58
2023-03-08T04:06:18.924Z,19.25
2023-03-08T04:12:22.961Z,19.85
2023-03-08T04:18:26.012Z,19.08
2023-03-08T04:24:28.677Z,20.75
2023-03-08T04:30:35.884Z,18.13
2023-03-08T04:36:40.320Z,21.30
2023-03-08T04:42:43.655Z,19.38
2023-03-08T04:48:49.070Z,20.20
2023-03-08T04:54:52.644Z,19.95
2023-03-08T05:00:59.765Z,20.70
2023-03-08T05:07:02.378Z,21.42
2023-03-08T05:13:08.581Z,21.50
2023-03-08T05:19:10.926Z,21.60
2023-03-08T05:25:21.005Z,21.10
2023-03-08T05:31:23.320Z,23.50
2023-03-08T05:37:28.587Z,22.88
2023-03-08T05:43:35.947Z,19.90
2023-03-08T05:49:40.988Z,20.17
2023-03-08T05:55:44.278Z,19.45
2023-03-08T06:01:47.905Z,20.98
2023-03-08T06:08:09.291Z,20.23
2023-03-08T06:14:13.173Z,20.58
2023-03-08T06:20:16.941Z,20.10
2023-03-08T06:26:22.788Z,19.50
2023-03-08T06:32:25.319Z,21.92
2023-03-08T06:38:30.171Z,19.80
2023-03-08T06:44:33.137Z,18.60
2023-03-08T06:50:36.191Z,17.25
2023-03-08T06:56:38.516Z,17.20
2023-03-08T07:02:42.363Z,17.73
2023-03-08T07:08:45.091Z,16.13
2023-03-08T07:14:47.228Z,16.13
2023-03-08T07:20:56.898Z,18.00
2023-03-08T07:26:59.221Z,19.42
2023-03-08T07:33:01.973Z,16.75
2023-03-08T07:39:04.180Z,19.67
2023-03-08T07:45:06.709Z,18.42
2023-03-08T07:51:10.569Z,16.63
2023-03-08T07:57:14.815Z,15.95
2023-03-08T08:03:17.061Z,13.43
2023-03-08T08:09:19.382Z,12.88
2023-03-08T08:15:23.940Z,12.73
2023-03-08T08:21:27.513Z,13.23
2023-03-08T08:27:29.786Z,12.35
2023-03-08T08:33:33.036Z,12.38
2023-03-08T08:39:35.178Z,12.05
2023-03-08T08:45:37.533Z,11.50
2023-03-08T08:51:40.049Z,10.95
2023-03-08T08:57:42.505Z,10.32
2023-03-08T09:03:46.023Z,10.82
2023-03-08T09:09:48.404Z,10.98
2023-03-08T09:15:50.622Z,9.90
2023-03-08T09:27:55.385Z,8.63
2023-03-08T09:33:58.107Z,10.77
2023-03-08T09:40:00.383Z,9.27
2023-03-08T09:46:05.395Z,8.88
2023-03-08T09:52:25.377Z,8.05
2023-03-08T09:58:53.548Z,7.57
2023-03-08T10:05:15.043Z,6.88
2023-03-08T10:11:29.336Z,6.53
2023-03-08T10:17:44.891Z,7.45
2023-03-08T10:23:53.061Z,5.28
2023-03-08T10:29:59.341Z,6.63
2023-03-08T10:36:12.949Z,4.47
2023-03-08T10:42:19.084Z,4.72
2023-03-08T10:48:22.633Z,5.45
2023-03-08T10:54:25.434Z,5.50
2023-03-08T11:00:35.023Z,5.25
2023-03-08T11:06:37.406Z,4.80
2023-03-08T11:12:40.116Z,4.25
2023-03-08T11:19:16.884Z,3.90
2023-03-08T11:25:28.208Z,4.43
2023-03-08T11:31:46.338Z,3.17
2023-03-08T11:38:17.860Z,3.65
2023-03-08T11:44:44.850Z,3.25
2023-03-08T11:50:59.485Z,3.10
2023-03-08T11:57:05.179Z,2.80
2023-03-08T12:03:25.669Z,3.53
2023-03-08T12:09:34.127Z,3.33
2023-03-08T12:15:53.088Z,3.53
2023-03-08T12:22:10.461Z,3.67
2023-03-08T12:28:25.972Z,2.28
2023-03-08T12:34:40.464Z,2.75
2023-03-08T12:40:56.191Z,2.80
2023-03-08T12:47:17.122Z,4.35
2023-03-08T12:53:41.051Z,2.65
2023-03-08T12:59:43.341Z,2.20
2023-03-08T13:05:47.702Z,2.50
2023-03-08T13:12:16.880Z,2.67
2023-03-08T13:18:20.751Z,2.70
2023-03-08T13:24:30.664Z,2.25
2023-03-08T13:30:52.807Z,3.88
2023-03-08T13:36:56.138Z,2.78
2023-03-08T13:43:05.593Z,2.67
2023-03-08T13:49:15.127Z,2.25
2023-03-08T13:55:21.354Z,2.67
2023-03-08T14:01:26.444Z,2.60
2023-03-08T14:07:32.507Z,2.60
2023-03-08T14:13:39.369Z,1.83
2023-03-08T14:19:42.969Z,2.80
2023-03-08T14:25:55.817Z,2.28
2023-03-08T14:32:06.045Z,2.70
2023-03-08T14:38:29.092Z,2.13
2023-03-08T14:44:31.405Z,2.80
2023-03-08T14:50:34.699Z,4.28
2023-03-08T14:56:37.202Z,2.75
2023-03-08T15:02:39.399Z,3.40
2023-03-08T15:08:41.769Z,2.30
2023-03-08T15:14:44.406Z,1.88
2023-03-08T15:26:52.943Z,2.90
2023-03-08T15:32:58.463Z,2.55
2023-03-08T15:39:01.720Z,2.38
2023-03-08T15:45:04.086Z,2.75
2023-03-08T15:51:06.627Z,2.10
2023-03-08T16:03:14.574Z,2.70
2023-03-08T16:09:16.730Z,3.55
2023-03-08T16:15:19.697Z,3.23
2023-03-08T16:21:22.360Z,3.78
2023-03-08T16:27:24.524Z,3.28
2023-03-08T16:33:28.187Z,2.72
2023-03-08T16:39:30.429Z,3.95
2023-03-08T16:45:32.795Z,5.18
2023-03-08T16:51:37.403Z,5.65
2023-03-08T16:57:44.152Z,5.43
2023-03-08T17:03:46.571Z,7.38
2023-03-08T17:09:49.065Z,6.93
2023-03-08T17:15:51.405Z,6.90
2023-03-08T17:21:53.814Z,7.72
2023-03-08T17:27:55.920Z,7.03
2023-03-08T17:33:58.293Z,7.90
2023-03-08T17:40:00.616Z,7.57
2023-03-08T17:46:05.978Z,7.45
2023-03-08T17:52:10.100Z,7.50
2023-03-08T17:58:12.784Z,6.85
2023-03-08T18:04:15.305Z,6.82
2023-03-08T18:10:18.165Z,5.50
2023-03-08T18:22:23.795Z,4.93
2023-03-08T18:34:29.094Z,4.20
2023-03-08T18:40:31.484Z,5.82
2023-03-08T18:46:34.234Z,4.72
2023-03-08T18:52:37.927Z,11.85
2023-03-08T18:58:40.294Z,7.63
2023-03-08T19:04:45.123Z,6.90
2023-03-08T19:10:47.410Z,13.15
2023-03-08T19:16:49.780Z,12.15
2023-03-08T19:22:51.976Z,8.93
2023-03-08T19:28:54.337Z,8.65
2023-03-08T19:34:56.462Z,7.18
2023-03-08T19:40:58.709Z,7.68
2023-03-08T19:47:01.926Z,7.50
2023-03-08T19:53:04.156Z,6.30
2023-03-08T19:59:06.649Z,6.25
2023-03-08T20:05:09.050Z,6.72
2023-03-08T20:11:11.110Z,5.15
2023-03-08T20:17:13.180Z,5.87
2023-03-08T20:23:15.498Z,7.03
2023-03-08T20:29:17.919Z,11.57
2023-03-08T20:35:22.132Z,12.05
2023-03-08T20:41:26.084Z,11.52
2023-03-08T20:47:28.526Z,10.20
2023-03-08T20:53:31.554Z,8.35
2023-03-08T20:59:33.801Z,8.88
2023-03-08T21:05:36.764Z,9.33
2023-03-08T21:11:40.303Z,9.63
2023-03-08T21:17:43.063Z,8.73
2023-03-08T21:23:47.242Z,9.55
2023-03-08T21:29:49.987Z,9.35
2023-03-08T21:36:00.523Z,8.57
2023-03-08T21:42:03.047Z,10.10
2023-03-08T21:48:05.787Z,8.93
2023-03-08T22:00:11.454Z,8.50
2023-03-08T22:06:16.918Z,7.57
2023-03-08T22:12:20.203Z,7.25
2023-03-08T22:18:22.414Z,6.28
2023-03-08T22:24:24.957Z,6.83
2023-03-08T22:30:27.218Z,5.68
2023-03-08T22:36:29.513Z,7.63
2023-03-08T22:42:33.696Z,6.47
2023-03-08T22:48:35.858Z,6.63
2023-03-08T22:54:38.055Z,6.20
2023-03-08T23:00:40.391Z,6.28
2023-03-08T23:06:42.525Z,6.25
2023-03-08T23:12:44.740Z,5.50
2023-03-08T23:18:51.462Z,6.00
2023-03-08T23:24:54.190Z,6.55
2023-03-08T23:30:56.292Z,5.50
2023-03-08T23:36:59.960Z,4.57
2023-03-08T23:43:02.081Z,5.30
2023-03-08T23:49:04.835Z,5.88
2023-03-08T23:55:07.461Z,5.15
